createdAt,value
2018-04-17T00:00:40.012Z,5.93
2018-04-17T00:06:30.635Z,6.81
2018-04-17T00:12:21.344Z,6.29
2018-04-17T00:18:11.975Z,5.69
2018-04-17T00:24:02.679Z,6
2018-04-17T00:29:53.362Z,6.43
2018-04-17T00:35:44.069Z,5.66
2018-04-17T00:41:34.706Z,5.64
2018-04-17T00:47:25.337Z,6.1
2018-04-17T00:53:16.056Z,5.96
2018-04-17T00:59:06.688Z,8.26
2018-04-17T01:04:57.385Z,5.13
2018-04-17T01:10:48.090Z,5.49
2018-04-17T01:16:38.741Z,4.97
2018-04-17T01:22:29.423Z,6.4
2018-04-17T01:28:20.079Z,5.23
2018-04-17T01:34:10.758Z,6.5
2018-04-17T01:40:01.513Z,7.44
2018-04-17T01:45:52.102Z,5.75
2018-04-17T01:51:42.767Z,5.3
2018-04-17T01:57:33.440Z,5.44
2018-04-17T02:03:24.135Z,5.49
2018-04-17T02:09:14.797Z,6.27
2018-04-17T02:15:05.466Z,5.63
2018-04-17T02:20:56.166Z,6.39
2018-04-17T02:26:46.827Z,6.52
2018-04-17T02:32:37.529Z,6.87
2018-04-17T02:38:28.137Z,5.59
2018-04-17T02:44:18.796Z,5.42
2018-04-17T02:50:09.488Z,6.61
2018-04-17T02:56:00.149Z,5.45
2018-04-17T03:01:50.818Z,6.31
2018-04-17T03:07:41.455Z,5.94
2018-04-17T03:13:32.173Z,5.5
2018-04-17T03:19:22.824Z,5.86
2018-04-17T03:25:13.528Z,6.64
2018-04-17T03:31:04.165Z,6.05
2018-04-17T03:36:54.827Z,6.1
2018-04-17T03:42:45.591Z,6.29
2018-04-17T03:48:36.160Z,6.4
2018-04-17T03:54:26.859Z,6.36
2018-04-17T04:00:17.495Z,7.13
2018-04-17T04:06:08.126Z,6.9
2018-04-17T04:11:58.800Z,6.53
2018-04-17T04:17:49.491Z,6.59
2018-04-17T04:23:40.159Z,6.4
2018-04-17T04:29:30.903Z,7.56
2018-04-17T04:35:21.495Z,7.28
2018-04-17T04:41:12.161Z,6.76
2018-04-17T04:47:02.814Z,7.78
2018-04-17T04:52:53.519Z,7.18
2018-04-17T04:58:44.169Z,7.43
2018-04-17T05:04:34.807Z,7.98
2018-04-17T05:10:25.506Z,7.47
2018-04-17T05:16:16.228Z,7.34
2018-04-17T05:22:06.814Z,10.25
2018-04-17T05:27:57.474Z,17.94
2018-04-17T05:33:48.135Z,16.68
2018-04-17T05:39:38.778Z,16.64
2018-04-17T05:45:29.525Z,20.91
2018-04-17T05:51:20.104Z,20.9
2018-04-17T05:57:10.788Z,31.19
2018-04-17T06:03:01.485Z,22.06
2018-04-17T06:08:52.096Z,22.45
2018-04-17T06:14:42.772Z,23.56
2018-04-17T06:20:33.439Z,15.92
2018-04-17T06:26:24.129Z,13.23
2018-04-17T06:32:14.764Z,12.24
2018-04-17T06:38:05.451Z,12.85
2018-04-17T06:43:56.070Z,12.55
2018-04-17T06:49:46.739Z,11.25
2018-04-17T06:55:37.467Z,12.7
2018-04-17T07:01:28.072Z,11.89
2018-04-17T07:07:18.816Z,12.24
2018-04-17T07:13:09.476Z,11.43
2018-04-17T07:19:00.144Z,12.14
2018-04-17T07:24:50.798Z,11.49
2018-04-17T07:30:41.492Z,13.67
2018-04-17T07:36:32.175Z,13.44
2018-04-17T07:42:22.801Z,13.36
2018-04-17T07:48:13.529Z,14.7
2018-04-17T07:54:04.136Z,15.55
2018-04-17T07:59:54.840Z,18.39
2018-04-17T08:05:45.505Z,25.94
2018-04-17T08:11:36.131Z,28.16
2018-04-17T08:17:26.894Z,31.49
2018-04-17T08:23:17.538Z,45.53
2018-04-17T08:29:08.186Z,36.63
2018-04-17T08:34:58.864Z,23.59
2018-04-17T08:40:49.579Z,18.67
2018-04-17T08:46:40.226Z,14.13
2018-04-17T08:52:30.924Z,13.88
2018-04-17T08:58:21.598Z,12.09
2018-04-17T09:04:12.270Z,13.75
2018-04-17T09:10:02.939Z,12.21
2018-04-17T09:15:53.684Z,12.18
2018-04-17T09:21:44.390Z,10.56
2018-04-17T09:27:35.114Z,10.05
2018-04-17T09:33:25.718Z,10.79
2018-04-17T09:39:16.474Z,10.88
2018-04-17T09:45:07.101Z,11.04
2018-04-17T09:50:57.805Z,10.48
2018-04-17T09:56:48.539Z,11.48
2018-04-17T10:02:39.186Z,9.55
2018-04-17T10:08:30.022Z,8.52
2018-04-17T10:14:20.658Z,8.89
2018-04-17T10:20:11.343Z,9.55
2018-04-17T10:26:02.017Z,8.51
2018-04-17T10:31:52.770Z,8.23
2018-04-17T10:37:43.531Z,7.46
2018-04-17T10:43:34.146Z,6
2018-04-17T10:49:24.839Z,5.83
2018-04-17T10:55:15.601Z,4.68
2018-04-17T11:01:06.310Z,5.35
2018-04-17T11:06:57.020Z,5.29
2018-04-17T11:12:47.827Z,5
2018-04-17T11:18:38.472Z,4.09
2018-04-17T11:24:29.176Z,4.49
2018-04-17T11:30:19.968Z,4.3
2018-04-17T11:36:10.642Z,3.65
2018-04-17T11:42:01.405Z,4.09
2018-04-17T11:47:52.107Z,4
2018-04-17T11:53:42.845Z,3.59
2018-04-17T11:59:33.601Z,3.92
2018-04-17T12:05:24.304Z,3.16
2018-04-17T12:11:15.040Z,3.89
2018-04-17T12:17:05.753Z,3.59
2018-04-17T12:22:56.525Z,3.96
2018-04-17T12:28:47.275Z,3.8
2018-04-17T12:34:37.974Z,3.59
2018-04-17T12:40:28.723Z,3.91
2018-04-17T12:46:19.475Z,3.26
2018-04-17T12:52:10.194Z,3.62
2018-04-17T12:58:00.960Z,2.79
2018-04-17T13:03:51.761Z,3.58
2018-04-17T13:09:42.452Z,2.56
2018-04-17T13:15:33.176Z,2.57
2018-04-17T13:21:23.957Z,2.9
2018-04-17T13:27:14.645Z,3.41
2018-04-17T13:33:05.376Z,2.9
2018-04-17T13:38:56.140Z,3.35
2018-04-17T13:44:46.898Z,3.41
2018-04-17T13:50:37.639Z,3.39
2018-04-17T13:56:28.448Z,2.78
2018-04-17T14:02:19.131Z,3.21
2018-04-17T14:08:09.925Z,3.05
2018-04-17T14:14:00.639Z,3.36
2018-04-17T14:19:51.334Z,2.8
2018-04-17T14:25:42.087Z,2.35
2018-04-17T14:31:32.988Z,3.39
2018-04-17T14:37:23.598Z,2.89
2018-04-17T14:43:14.351Z,3.12
2018-04-17T14:49:05.074Z,3.81
2018-04-17T14:54:55.815Z,3.37
2018-04-17T15:00:46.566Z,3.31
2018-04-17T15:06:37.313Z,3.64
2018-04-17T15:12:28.046Z,3.26
2018-04-17T15:18:18.738Z,2.92
2018-04-17T15:24:09.473Z,2.14
2018-04-17T15:30:00.295Z,1.84
2018-04-17T15:35:50.955Z,2.25
2018-04-17T15:41:41.690Z,2.2
2018-04-17T15:47:32.469Z,2.6
2018-04-17T15:53:23.220Z,2.38
2018-04-17T15:59:13.940Z,1.92
2018-04-17T16:05:04.724Z,2.2
2018-04-17T16:10:55.426Z,2.2
2018-04-17T16:16:46.182Z,1.94
2018-04-17T16:22:36.889Z,2.81
2018-04-17T16:28:27.629Z,2.27
2018-04-17T16:34:18.353Z,2.46
2018-04-17T16:40:09.090Z,2.1
2018-04-17T16:46:01.955Z,2.46
2018-04-17T16:51:51.458Z,2.05
2018-04-17T16:57:41.303Z,3.38
2018-04-17T17:03:32.046Z,3.68
2018-04-17T17:09:22.738Z,3.19
2018-04-17T17:15:13.514Z,3.47
2018-04-17T17:21:04.305Z,4.18
2018-04-17T17:26:54.944Z,15.69
2018-04-17T17:32:45.665Z,4.05
2018-04-17T17:38:36.426Z,6.31
2018-04-17T17:44:27.144Z,14.06
2018-04-17T17:50:17.896Z,5.6
2018-04-17T17:56:08.589Z,41.86
2018-04-17T18:01:59.307Z,5.62
2018-04-17T18:07:50.038Z,5.56
2018-04-17T18:13:40.757Z,5
2018-04-17T18:19:31.488Z,5.09
2018-04-17T18:25:22.180Z,4.19
2018-04-17T18:31:12.992Z,3.99
2018-04-17T18:37:03.662Z,4.71
2018-04-17T18:42:54.395Z,3.98
2018-04-17T18:48:45.176Z,4.54
2018-04-17T18:54:35.840Z,4.08
2018-04-17T19:00:26.582Z,4.34
2018-04-17T19:06:17.340Z,4.68
2018-04-17T19:12:07.984Z,5.75
2018-04-17T19:17:58.690Z,4.64
2018-04-17T19:23:49.375Z,4.66
2018-04-17T19:29:40.127Z,5.19
2018-04-17T19:35:30.899Z,5.01
2018-04-17T19:41:21.584Z,3.88
2018-04-17T19:47:12.266Z,3.88
2018-04-17T19:53:03.008Z,3.81
2018-04-17T19:58:53.691Z,3.69
2018-04-17T20:04:44.388Z,3.62
2018-04-17T20:10:35.109Z,4.65
2018-04-17T20:16:25.856Z,5.29
2018-04-17T20:22:16.523Z,4.5
2018-04-17T20:28:07.253Z,4.16
2018-04-17T20:33:57.966Z,3.49
2018-04-17T20:39:48.638Z,3.65
2018-04-17T20:45:39.380Z,3.77
2018-04-17T20:51:30.097Z,4.05
2018-04-17T20:57:20.828Z,3.62
2018-04-17T21:03:11.464Z,4.82
2018-04-17T21:09:02.175Z,5.05
2018-04-17T21:14:52.888Z,4.72
2018-04-17T21:20:43.581Z,5.75
2018-04-17T21:26:35.206Z,3.99
2018-04-17T21:32:24.997Z,4.16
2018-04-17T21:38:15.814Z,3.96
2018-04-17T21:44:06.366Z,3.34
2018-04-17T21:49:57.056Z,3.87
2018-04-17T21:55:47.750Z,4.15
2018-04-17T22:01:38.470Z,3.62
2018-04-17T22:07:29.162Z,5.29
2018-04-17T22:13:19.813Z,6.74
2018-04-17T22:19:10.510Z,4.89
2018-04-17T22:25:01.296Z,3.85
2018-04-17T22:30:51.915Z,3.72
2018-04-17T22:36:42.615Z,3.94
2018-04-17T22:42:33.277Z,4.76
2018-04-17T22:48:24.002Z,3.49
2018-04-17T22:54:14.660Z,4.35
2018-04-17T23:00:05.769Z,4.27
2018-04-17T23:05:56.074Z,3.59
2018-04-17T23:11:46.751Z,3.44
2018-04-17T23:17:37.453Z,3.79
2018-04-17T23:23:28.117Z,5.18
2018-04-17T23:29:18.854Z,3.26
2018-04-17T23:35:09.457Z,3.61
2018-04-17T23:41:00.203Z,3.33
2018-04-17T23:46:50.887Z,3.71
2018-04-17T23:52:41.561Z,6.81
2018-04-17T23:58:32.253Z,3.86
